Time;durP1;ratioP1;P1;durP2;ratioP2;P2;SDS_P1;SDS_P2;PMS_P1;PMS_P2;Temp;Humidity;BMP_temperature;BMP_pressure;BME280_temperature;BME280_humidity;BME280_pressure;Samples;Min_cycle;Max_cycle;Signal;HPM_P1;HPM_P2
2021/03/07 00:02:15;;;;;;;13.77;7.95;;;;;;;;;;5077375;28;20036;-88
2021/03/07 00:04:41;;;;;;;12.50;7.20;;;;;;;;;;5076524;28;20017;-89
2021/03/07 00:07:07;;;;;;;17.73;7.53;;;;;;;;;;5080276;28;20032;-86
2021/03/07 00:09:34;;;;;;;10.90;8.13;;;;;;;;;;5075603;28;20343;-88
2021/03/07 00:12:00;;;;;;;10.75;7.38;;;;;;;;;;5078035;28;20031;-90
2021/03/07 00:14:26;;;;;;;14.50;7.15;;;;;;;;;;5092322;28;20180;-87
2021/03/07 00:16:52;;;;;;;19.08;7.65;;;;;;;;;;5076087;28;20024;-89
2021/03/07 00:19:18;;;;;;;13.02;7.75;;;;;;;;;;5096261;28;20063;-89
2021/03/07 00:21:44;;;;;;;12.27;8.15;;;;;;;;;;5078810;28;20039;-86
2021/03/07 00:24:10;;;;;;;15.75;8.10;;;;;;;;;;5096239;28;20045;-89
2021/03/07 00:26:36;;;;;;;12.73;7.63;;;;;;;;;;5097064;28;20123;-91
2021/03/07 00:29:02;;;;;;;12.65;7.97;;;;;;;;;;5098096;28;20027;-88
2021/03/07 00:31:28;;;;;;;9.70;6.47;;;;;;;;;;5098964;28;20039;-90
2021/03/07 00:33:54;;;;;;;15.15;7.38;;;;;;;;;;5081390;28;20032;-89
2021/03/07 00:36:21;;;;;;;14.48;7.57;;;;;;;;;;5078696;28;20035;-88
2021/03/07 00:38:47;;;;;;;14.57;7.85;;;;;;;;;;5079155;28;20043;-90
2021/03/07 00:41:13;;;;;;;11.68;7.60;;;;;;;;;;5077813;28;20032;-91
2021/03/07 00:43:39;;;;;;;15.00;9.20;;;;;;;;;;5080904;28;20043;-86
2021/03/07 00:46:06;;;;;;;11.88;7.50;;;;;;;;;;5098847;28;20043;-87
2021/03/07 00:48:33;;;;;;;9.35;7.13;;;;;;;;;;5080235;28;20024;-88
2021/03/07 00:50:59;;;;;;;13.15;7.70;;;;;;;;;;5098585;28;20069;-90
2021/03/07 00:53:26;;;;;;;11.73;7.53;;;;;;;;;;5098635;28;20051;-87
2021/03/07 00:55:52;;;;;;;12.48;7.28;;;;;;;;;;5081625;28;20027;-89
2021/03/07 00:58:18;;;;;;;9.43;7.07;;;;;;;;;;5081145;28;20074;-89
2021/03/07 01:00:46;;;;;;;14.48;7.60;;;;;;;;;;5081372;28;20081;-87
2021/03/07 01:03:12;;;;;;;12.48;6.90;;;;;;;;;;5098760;28;20054;-87
2021/03/07 01:05:39;;;;;;;10.95;7.20;;;;;;;;;;5097106;28;20034;-86
2021/03/07 01:08:14;;;;;;;11.38;6.65;;;;;;;;;;5097693;28;20101;-90
2021/03/07 01:11:04;;;;;;;10.05;6.50;;;;;;;;;;5098657;28;20028;-89
2021/03/07 01:13:31;;;;;;;10.77;6.72;;;;;;;;;;5097509;28;20085;-87
2021/03/07 01:16:00;;;;;;;11.40;7.55;;;;;;;;;;5069874;28;20032;-86
2021/03/07 01:18:26;;;;;;;;;;;;;;;;;;5081480;28;20032;-91
2021/03/07 01:20:52;;;;;;;12.13;6.50;;;;;;;;;;5081752;28;19919;-90
2021/03/07 01:23:19;;;;;;;8.65;6.10;;;;;;;;;;5081253;28;20028;-91
2021/03/07 01:25:45;;;;;;;10.07;6.75;;;;;;;;;;5097578;28;20036;-90
2021/03/07 01:28:11;;;;;;;8.70;5.95;;;;;;;;;;5095785;28;20024;-89
2021/03/07 01:30:39;;;;;;;7.90;6.20;;;;;;;;;;5097999;28;20111;-86
2021/03/07 01:33:05;;;;;;;11.20;5.95;;;;;;;;;;5097371;28;20086;-90
2021/03/07 01:35:31;;;;;;;8.25;6.25;;;;;;;;;;5097188;28;20028;-88
2021/03/07 01:37:58;;;;;;;12.25;6.70;;;;;;;;;;5098118;28;20051;-88
2021/03/07 01:40:27;;;;;;;8.98;5.93;;;;;;;;;;5080543;28;20043;-85
2021/03/07 01:42:53;;;;;;;;;;;;;;;;;;5081239;28;20032;-90
2021/03/07 01:45:20;;;;;;;11.30;6.25;;;;;;;;;;5098049;28;19912;-87
2021/03/07 01:47:47;;;;;;;10.02;6.68;;;;;;;;;;5098135;28;20035;-87
2021/03/07 01:50:15;;;;;;;13.82;6.88;;;;;;;;;;5097828;28;20024;-88
2021/03/07 01:52:41;;;;;;;11.82;6.20;;;;;;;;;;5097511;28;20036;-88
2021/03/07 01:55:07;;;;;;;9.50;6.88;;;;;;;;;;5087470;28;20031;-91
2021/03/07 01:57:37;;;;;;;9.98;5.75;;;;;;;;;;5079639;28;20032;-89
2021/03/07 02:00:04;;;;;;;12.05;6.65;;;;;;;;;;5097917;28;20024;-88
2021/03/07 02:02:30;;;;;;;10.50;6.38;;;;;;;;;;5098382;28;20161;-88
2021/03/07 02:04:56;;;;;;;8.07;5.63;;;;;;;;;;5080523;28;20032;-90
2021/03/07 02:07:22;;;;;;;13.35;6.55;;;;;;;;;;5080105;28;20371;-90
2021/03/07 02:09:50;;;;;;;10.77;7.10;;;;;;;;;;5080459;28;20415;-90
2021/03/07 02:12:16;;;;;;;8.27;5.70;;;;;;;;;;5090503;28;20058;-90
2021/03/07 02:14:43;;;;;;;9.88;6.68;;;;;;;;;;5089743;28;20329;-92
2021/03/07 02:17:09;;;;;;;9.82;7.13;;;;;;;;;;5097899;28;20066;-87
2021/03/07 02:19:38;;;;;;;10.27;6.78;;;;;;;;;;5097315;28;20050;-89
2021/03/07 02:22:10;;;;;;;9.55;7.32;;;;;;;;;;5097669;28;20074;-87
2021/03/07 02:24:36;;;;;;;11.50;6.55;;;;;;;;;;5097711;28;20028;-89
2021/03/07 02:27:03;;;;;;;10.15;6.80;;;;;;;;;;5097505;28;20039;-91
2021/03/07 02:29:30;;;;;;;14.63;6.97;;;;;;;;;;5098174;28;20031;-88
2021/03/07 02:31:58;;;;;;;13.00;6.43;;;;;;;;;;5091973;28;20035;-89
2021/03/07 02:34:38;;;;;;;11.20;6.57;;;;;;;;;;5079819;28;20039;-87
2021/03/07 02:37:08;;;;;;;11.73;7.32;;;;;;;;;;5079271;28;20431;-88
2021/03/07 02:39:36;;;;;;;9.20;7.45;;;;;;;;;;5079952;28;20095;-87
2021/03/07 02:42:23;;;;;;;13.80;7.60;;;;;;;;;;5079902;28;20043;-90
2021/03/07 02:44:55;;;;;;;14.38;7.00;;;;;;;;;;5098084;28;20038;-88
2021/03/07 02:47:22;;;;;;;12.18;7.32;;;;;;;;;;5098263;28;20024;-90
2021/03/07 02:49:49;;;;;;;11.95;7.28;;;;;;;;;;5078872;28;20377;-87
2021/03/07 02:52:17;;;;;;;14.80;7.32;;;;;;;;;;5079678;28;20070;-90
2021/03/07 02:54:44;;;;;;;9.77;6.22;;;;;;;;;;5094551;28;20164;-87
2021/03/07 02:57:10;;;;;;;9.55;6.53;;;;;;;;;;5097221;28;20367;-89
2021/03/07 02:59:38;;;;;;;10.98;7.28;;;;;;;;;;5096397;28;20067;-87
2021/03/07 03:02:05;;;;;;;9.73;6.55;;;;;;;;;;5094934;28;20030;-91
2021/03/07 03:04:32;;;;;;;17.42;7.53;;;;;;;;;;5078533;28;20442;-89
2021/03/07 03:06:58;;;;;;;12.50;6.97;;;;;;;;;;5096415;28;20070;-90
2021/03/07 03:09:27;;;;;;;14.35;8.48;;;;;;;;;;5095945;28;20031;-89
2021/03/07 03:11:56;;;;;;;14.60;9.70;;;;;;;;;;5096056;28;20042;-89
2021/03/07 03:14:22;;;;;;;13.10;8.75;;;;;;;;;;5077154;28;20055;-89
2021/03/07 03:16:51;;;;;;;16.20;9.55;;;;;;;;;;5078247;28;20024;-89
2021/03/07 03:19:17;;;;;;;31.73;10.43;;;;;;;;;;5078113;28;20024;-88
2021/03/07 03:21:45;;;;;;;15.70;10.07;;;;;;;;;;5095740;28;20027;-87
2021/03/07 03:24:12;;;;;;;17.75;10.55;;;;;;;;;;5075026;28;20039;-87
2021/03/07 03:26:39;;;;;;;16.25;10.68;;;;;;;;;;5096104;28;20054;-88
2021/03/07 03:29:06;;;;;;;20.95;11.55;;;;;;;;;;5077613;28;20063;-90
2021/03/07 03:31:32;;;;;;;20.30;11.82;;;;;;;;;;5078230;28;20423;-90
2021/03/07 03:33:59;;;;;;;20.70;11.50;;;;;;;;;;5077971;28;20035;-91
2021/03/07 03:36:25;;;;;;;18.38;11.07;;;;;;;;;;5077482;28;20027;-91
2021/03/07 03:38:56;;;;;;;14.90;9.60;;;;;;;;;;5078402;28;20143;-91
2021/03/07 03:41:23;;;;;;;20.27;11.27;;;;;;;;;;5079148;28;20035;-87
2021/03/07 03:43:50;;;;;;;16.50;10.00;;;;;;;;;;5077768;28;20056;-89
2021/03/07 03:46:20;;;;;;;17.67;10.48;;;;;;;;;;5078667;28;20031;-89
2021/03/07 03:48:48;;;;;;;13.10;9.57;;;;;;;;;;5095452;28;20328;-90
2021/03/07 03:51:16;;;;;;;21.08;10.48;;;;;;;;;;5096044;28;20362;-88
2021/03/07 03:53:42;;;;;;;16.45;10.35;;;;;;;;;;5077396;28;20052;-88
2021/03/07 03:56:12;;;;;;;17.25;10.13;;;;;;;;;;5095568;28;20038;-90
2021/03/07 03:58:39;;;;;;;14.98;10.55;;;;;;;;;;5077702;28;20119;-90
2021/03/07 04:01:06;;;;;;;19.58;11.50;;;;;;;;;;5078509;28;20024;-88
2021/03/07 04:03:32;;;;;;;17.70;10.30;;;;;;;;;;5081463;28;20046;-91
2021/03/07 04:05:58;;;;;;;21.13;11.68;;;;;;;;;;5081593;28;20048;-88
2021/03/07 04:08:25;;;;;;;16.90;10.43;;;;;;;;;;5081039;28;20043;-88
2021/03/07 04:10:52;;;;;;;19.00;9.90;;;;;;;;;;5081041;28;20119;-92
2021/03/07 04:13:20;;;;;;;15.07;9.68;;;;;;;;;;5080084;28;20031;-90
2021/03/07 04:15:46;;;;;;;17.50;11.30;;;;;;;;;;5081470;28;20020;-90
2021/03/07 04:18:17;;;;;;;15.57;9.55;;;;;;;;;;5098585;28;20032;-90
2021/03/07 04:20:46;;;;;;;17.15;11.18;;;;;;;;;;5080744;28;20109;-91
2021/03/07 04:23:13;;;;;;;15.35;10.48;;;;;;;;;;5094885;28;20074;-86
2021/03/07 04:25:40;;;;;;;14.77;9.43;;;;;;;;;;5098172;28;20111;-87
2021/03/07 04:28:06;;;;;;;14.82;10.18;;;;;;;;;;5097417;28;20028;-86
2021/03/07 04:30:33;;;;;;;16.00;10.27;;;;;;;;;;5082307;28;20024;-89
2021/03/07 04:33:00;;;;;;;16.83;10.13;;;;;;;;;;5079741;28;20220;-90
2021/03/07 04:35:26;;;;;;;19.95;11.18;;;;;;;;;;5097928;28;20028;-87
2021/03/07 04:37:55;;;;;;;17.52;10.93;;;;;;;;;;5081170;28;20574;-90
2021/03/07 04:40:21;;;;;;;21.30;11.45;;;;;;;;;;5081411;28;20032;-91
2021/03/07 04:42:47;;;;;;;13.82;9.70;;;;;;;;;;5098320;28;20328;-89
2021/03/07 04:45:14;;;;;;;18.30;9.98;;;;;;;;;;5094985;28;20058;-88
2021/03/07 04:47:41;;;;;;;16.67;11.55;;;;;;;;;;5080007;28;20024;-90
2021/03/07 04:50:08;;;;;;;17.90;10.63;;;;;;;;;;5097899;28;20020;-90
2021/03/07 04:52:38;;;;;;;15.52;10.50;;;;;;;;;;5080317;28;20047;-88
2021/03/07 04:55:05;;;;;;;17.52;11.15;;;;;;;;;;5079414;28;20035;-88
2021/03/07 04:57:31;;;;;;;20.05;11.65;;;;;;;;;;5077535;28;20035;-90
2021/03/07 04:59:58;;;;;;;19.73;11.57;;;;;;;;;;5080913;28;20032;-89
2021/03/07 05:02:29;;;;;;;14.63;10.55;;;;;;;;;;5080263;28;20058;-89
2021/03/07 05:04:56;;;;;;;16.23;11.55;;;;;;;;;;5097494;28;20454;-89
2021/03/07 05:07:22;;;;;;;16.42;12.10;;;;;;;;;;5097989;28;20035;-91
2021/03/07 05:09:48;;;;;;;17.05;11.82;;;;;;;;;;5082465;28;20028;-88
2021/03/07 05:12:14;;;;;;;19.05;10.95;;;;;;;;;;5079500;28;20035;-88
2021/03/07 05:14:41;;;;;;;19.35;13.02;;;;;;;;;;5097345;28;20018;-88
2021/03/07 05:17:07;;;;;;;18.17;10.85;;;;;;;;;;5079979;28;20028;-90
2021/03/07 05:19:33;;;;;;;22.40;13.85;;;;;;;;;;5079929;28;20028;-88
2021/03/07 05:21:59;;;;;;;17.02;11.82;;;;;;;;;;5097502;28;20031;-91
2021/03/07 05:24:25;;;;;;;18.65;11.27;;;;;;;;;;5080136;28;20034;-90
2021/03/07 05:26:51;;;;;;;21.10;12.90;;;;;;;;;;5080135;28;20031;-88
2021/03/07 05:29:18;;;;;;;15.60;10.82;;;;;;;;;;5079915;28;20063;-87
2021/03/07 05:31:44;;;;;;;17.35;11.52;;;;;;;;;;5079321;28;20023;-88
2021/03/07 05:34:10;;;;;;;17.58;11.68;;;;;;;;;;5079684;28;20355;-89
2021/03/07 05:36:36;;;;;;;16.13;11.07;;;;;;;;;;5096982;28;20045;-88
2021/03/07 05:39:03;;;;;;;17.02;10.52;;;;;;;;;;5080092;28;20340;-88
2021/03/07 05:41:29;;;;;;;15.90;11.68;;;;;;;;;;5079582;28;20027;-89
2021/03/07 05:43:55;;;;;;;19.17;12.00;;;;;;;;;;5096020;28;20028;-88
2021/03/07 05:46:22;;;;;;;25.05;12.77;;;;;;;;;;5079678;28;20035;-88
2021/03/07 05:48:48;;;;;;;14.95;11.18;;;;;;;;;;5079558;28;20032;-89
2021/03/07 05:51:14;;;;;;;17.88;11.40;;;;;;;;;;5097293;28;20038;-90
2021/03/07 05:53:46;;;;;;;19.05;10.82;;;;;;;;;;5096792;28;20028;-88
2021/03/07 05:56:12;;;;;;;15.27;10.45;;;;;;;;;;5077029;28;20032;-89
2021/03/07 05:58:40;;;;;;;16.65;10.32;;;;;;;;;;5079368;28;20455;-88
2021/03/07 06:01:06;;;;;;;15.73;11.15;;;;;;;;;;5097325;28;20035;-89
2021/03/07 06:03:32;;;;;;;14.45;10.85;;;;;;;;;;5079823;28;20201;-87
2021/03/07 06:05:58;;;;;;;16.65;11.25;;;;;;;;;;5097436;28;20032;-90
2021/03/07 06:08:24;;;;;;;21.42;12.48;;;;;;;;;;5082569;28;20343;-92
2021/03/07 06:10:50;;;;;;;16.35;10.85;;;;;;;;;;5080227;28;20039;-86
2021/03/07 06:13:17;;;;;;;16.58;10.77;;;;;;;;;;5079663;28;20043;-87
2021/03/07 06:15:44;;;;;;;16.70;10.77;;;;;;;;;;5078886;28;20073;-89
2021/03/07 06:18:16;;;;;;;16.20;10.45;;;;;;;;;;5078816;28;20024;-87
2021/03/07 06:20:42;;;;;;;20.23;10.45;;;;;;;;;;5079417;28;20062;-88
2021/03/07 06:23:09;;;;;;;14.73;10.57;;;;;;;;;;5079089;28;20031;-91
2021/03/07 06:25:45;;;;;;;14.30;9.65;;;;;;;;;;5096506;28;20397;-91
2021/03/07 06:28:21;;;;;;;17.67;11.30;;;;;;;;;;5079344;28;20028;-86
2021/03/07 06:30:47;;;;;;;17.20;9.93;;;;;;;;;;5097815;28;20036;-87
2021/03/07 06:33:27;;;;;;;14.95;10.77;;;;;;;;;;5081947;28;20038;-89
2021/03/07 06:36:13;;;;;;;16.65;10.32;;;;;;;;;;5096658;28;20028;-90
2021/03/07 06:38:50;;;;;;;13.63;9.93;;;;;;;;;;5096948;28;20024;-90
2021/03/07 06:41:19;;;;;;;15.82;9.98;;;;;;;;;;5076651;28;20035;-88
2021/03/07 06:43:46;;;;;;;18.77;10.73;;;;;;;;;;5083613;28;20576;-89
2021/03/07 06:46:31;;;;;;;18.02;11.40;;;;;;;;;;5095186;28;20024;-91
2021/03/07 06:48:57;;;;;;;14.15;10.13;;;;;;;;;;5074003;28;20028;-90
2021/03/07 06:51:27;;;;;;;15.27;10.57;;;;;;;;;;5095295;28;20024;-88
2021/03/07 06:53:53;;;;;;;15.40;10.70;;;;;;;;;;5093181;28;20081;-87
2021/03/07 06:56:48;;;;;;;13.00;10.18;;;;;;;;;;5095118;28;20055;-88
2021/03/07 06:59:21;;;;;;;15.45;10.45;;;;;;;;;;5057292;28;20071;-89
2021/03/07 07:01:57;;;;;;;20.35;11.15;;;;;;;;;;5073550;28;20032;-90
2021/03/07 07:04:24;;;;;;;14.80;9.90;;;;;;;;;;5075499;28;20028;-89
2021/03/07 07:07:00;;;;;;;11.88;9.50;;;;;;;;;;5075300;28;20028;-91
2021/03/07 07:09:26;;;;;;;18.17;11.07;;;;;;;;;;5075111;28;20028;-90
2021/03/07 07:11:54;;;;;;;16.17;10.02;;;;;;;;;;5079231;28;20347;-90
2021/03/07 07:14:34;;;;;;;17.92;10.38;;;;;;;;;;5077253;28;20039;-88
2021/03/07 07:17:00;;;;;;;12.93;10.13;;;;;;;;;;5074517;28;20047;-87
2021/03/07 07:19:27;;;;;;;13.35;9.13;;;;;;;;;;5077051;28;20028;-86
2021/03/07 07:21:53;;;;;;;13.18;10.50;;;;;;;;;;5076996;28;20028;-89
2021/03/07 07:24:19;;;;;;;14.90;9.73;;;;;;;;;;5094840;28;20027;-88
2021/03/07 07:26:46;;;;;;;10.52;8.15;;;;;;;;;;5077475;28;20092;-87
2021/03/07 07:29:12;;;;;;;14.38;9.25;;;;;;;;;;5077091;28;20352;-90
2021/03/07 07:31:41;;;;;;;14.13;9.57;;;;;;;;;;5077556;28;20024;-89
2021/03/07 07:34:12;;;;;;;13.77;9.63;;;;;;;;;;5077272;28;20051;-89
2021/03/07 07:36:41;;;;;;;13.98;9.05;;;;;;;;;;5073190;28;20089;-90
2021/03/07 07:39:07;;;;;;;;;;;;;;;;;;5075197;28;20063;-87
2021/03/07 07:41:33;;;;;;;10.85;8.57;;;;;;;;;;5092387;28;19907;-88
2021/03/07 07:44:03;;;;;;;12.55;9.05;;;;;;;;;;5076607;28;20032;-87
2021/03/07 07:46:29;;;;;;;10.32;7.88;;;;;;;;;;5076546;28;20443;-89
2021/03/07 07:48:56;;;;;;;11.98;9.55;;;;;;;;;;5094028;28;20024;-88
2021/03/07 07:51:36;;;;;;;12.60;8.57;;;;;;;;;;5074422;28;20328;-89
2021/03/07 07:54:03;;;;;;;15.02;9.50;;;;;;;;;;5073724;28;20047;-88
2021/03/07 07:56:35;;;;;;;15.50;9.05;;;;;;;;;;5075503;28;20020;-87
2021/03/07 07:59:02;;;;;;;13.75;8.50;;;;;;;;;;5074836;28;20028;-86
2021/03/07 08:01:47;;;;;;;11.75;8.70;;;;;;;;;;5076746;28;20032;-86
2021/03/07 08:04:28;;;;;;;16.40;8.38;;;;;;;;;;5093361;28;20059;-88
2021/03/07 08:06:57;;;;;;;10.68;8.35;;;;;;;;;;5076355;28;20383;-87
2021/03/07 08:09:23;;;;;;;;;;;;;;;;;;5094639;28;20026;-85
2021/03/07 08:11:49;;;;;;;12.45;8.68;;;;;;;;;;5094928;28;19967;-86
2021/03/07 08:14:33;;;;;;;13.95;9.05;;;;;;;;;;5094266;28;20032;-89
2021/03/07 08:17:00;;;;;;;13.65;8.75;;;;;;;;;;5076640;28;21374;-87
2021/03/07 08:19:44;;;;;;;12.70;8.50;;;;;;;;;;5094095;28;20028;-87
2021/03/07 08:22:10;;;;;;;14.38;8.52;;;;;;;;;;5076615;28;20024;-87
2021/03/07 08:24:59;;;;;;;15.77;8.75;;;;;;;;;;5094781;28;20111;-88
2021/03/07 08:27:33;;;;;;;16.27;9.27;;;;;;;;;;5073210;28;20244;-88
2021/03/07 08:29:59;;;;;;;10.95;7.47;;;;;;;;;;5076903;28;20051;-86
2021/03/07 08:32:31;;;;;;;15.90;9.25;;;;;;;;;;5076572;28;20024;-87
2021/03/07 08:35:18;;;;;;;11.63;7.55;;;;;;;;;;5076875;28;20047;-86
2021/03/07 08:38:03;;;;;;;12.73;7.13;;;;;;;;;;5093745;28;20022;-87
2021/03/07 08:40:31;;;;;;;9.82;7.63;;;;;;;;;;5094627;28;20043;-86
2021/03/07 08:43:17;;;;;;;11.02;6.95;;;;;;;;;;5078482;28;20127;-89
2021/03/07 08:46:02;;;;;;;10.82;6.97;;;;;;;;;;5077377;28;20031;-89
2021/03/07 08:48:29;;;;;;;10.38;7.10;;;;;;;;;;5095828;28;20028;-89
2021/03/07 08:50:55;;;;;;;13.77;7.28;;;;;;;;;;5075726;28;20465;-89
2021/03/07 08:53:25;;;;;;;8.50;6.40;;;;;;;;;;5080002;28;20119;-87
2021/03/07 08:55:52;;;;;;;10.73;6.40;;;;;;;;;;5081672;28;20028;-86
2021/03/07 08:58:18;;;;;;;6.38;5.13;;;;;;;;;;5101800;28;20020;-90
2021/03/07 09:00:48;;;;;;;9.52;5.20;;;;;;;;;;5101951;28;20440;-88
2021/03/07 09:03:15;;;;;;;7.28;5.15;;;;;;;;;;5082550;28;20053;-87
2021/03/07 09:05:42;;;;;;;6.40;5.13;;;;;;;;;;5093897;28;20068;-88
2021/03/07 09:08:08;;;;;;;6.78;4.55;;;;;;;;;;5101998;28;20020;-88
2021/03/07 09:10:36;;;;;;;6.93;4.72;;;;;;;;;;5094450;28;20066;-88
2021/03/07 09:13:13;;;;;;;7.90;4.80;;;;;;;;;;5084802;28;20035;-88
2021/03/07 09:15:41;;;;;;;10.23;3.97;;;;;;;;;;5083038;28;20103;-86
2021/03/07 09:18:07;;;;;;;6.20;4.05;;;;;;;;;;5098075;28;20065;-87
2021/03/07 09:20:43;;;;;;;6.90;3.92;;;;;;;;;;5117013;28;20032;-87
2021/03/07 09:23:29;;;;;;;6.70;3.97;;;;;;;;;;5117795;28;20000;-89
2021/03/07 09:25:55;;;;;;;5.63;3.50;;;;;;;;;;5099146;28;20061;-90
2021/03/07 09:28:28;;;;;;;4.63;3.35;;;;;;;;;;5116972;28;20042;-89
2021/03/07 09:30:55;;;;;;;3.67;1.63;;;;;;;;;;5114222;28;20020;-89
2021/03/07 09:33:21;;;;;;;3.38;1.80;;;;;;;;;;5112009;28;20055;-89
2021/03/07 09:35:48;;;;;;;2.63;1.40;;;;;;;;;;5097010;28;20051;-87
2021/03/07 09:38:17;;;;;;;1.67;1.17;;;;;;;;;;5113697;28;20035;-89
2021/03/07 09:40:44;;;;;;;1.70;1.20;;;;;;;;;;5098551;28;20032;-86
2021/03/07 09:43:11;;;;;;;2.63;1.60;;;;;;;;;;5092610;28;20028;-85
2021/03/07 09:45:44;;;;;;;3.25;1.70;;;;;;;;;;5086044;28;20036;-87
2021/03/07 09:48:11;;;;;;;3.00;1.92;;;;;;;;;;5091569;28;20027;-89
2021/03/07 09:50:37;;;;;;;3.22;1.95;;;;;;;;;;5090876;28;20070;-87
2021/03/07 09:53:04;;;;;;;3.70;2.20;;;;;;;;;;5090846;28;20105;-88
2021/03/07 09:55:32;;;;;;;5.72;2.13;;;;;;;;;;5088192;28;20020;-85
2021/03/07 09:58:01;;;;;;;4.53;2.45;;;;;;;;;;5094816;28;20032;-88
2021/03/07 10:00:29;;;;;;;2.80;2.30;;;;;;;;;;5089285;28;20022;-89
2021/03/07 10:02:55;;;;;;;2.03;1.88;;;;;;;;;;5086166;28;20032;-90
2021/03/07 10:05:21;;;;;;;7.40;2.50;;;;;;;;;;5090119;28;20126;-89
2021/03/07 10:07:47;;;;;;;6.80;2.70;;;;;;;;;;5105432;28;20038;-86
2021/03/07 10:10:17;;;;;;;4.25;2.33;;;;;;;;;;5086025;28;20051;-86
2021/03/07 10:12:45;;;;;;;4.50;2.08;;;;;;;;;;5090272;28;20036;-85
2021/03/07 10:15:22;;;;;;;3.10;2.10;;;;;;;;;;5080432;28;20031;-87
2021/03/07 10:17:48;;;;;;;2.13;1.90;;;;;;;;;;5083355;28;20024;-87
2021/03/07 10:20:14;;;;;;;6.28;2.33;;;;;;;;;;5091638;28;20348;-88
2021/03/07 10:22:42;;;;;;;4.18;2.03;;;;;;;;;;5083300;28;20074;-87
2021/03/07 10:25:08;;;;;;;3.80;2.00;;;;;;;;;;5089538;28;20034;-85
2021/03/07 10:27:34;;;;;;;2.83;1.63;;;;;;;;;;5086237;28;20046;-88
2021/03/07 10:30:01;;;;;;;5.78;2.20;;;;;;;;;;5088746;28;20032;-85
2021/03/07 10:32:27;;;;;;;3.60;2.65;;;;;;;;;;5092271;28;20032;-87
2021/03/07 10:34:53;;;;;;;2.53;2.05;;;;;;;;;;5097764;28;20028;-88
2021/03/07 10:37:39;;;;;;;2.63;2.33;;;;;;;;;;5089678;28;20047;-86
2021/03/07 10:40:07;;;;;;;4.65;2.53;;;;;;;;;;5079118;28;20071;-86
2021/03/07 10:42:37;;;;;;;3.50;2.10;;;;;;;;;;5079824;28;20027;-87
2021/03/07 10:45:20;;;;;;;6.22;2.10;;;;;;;;;;5081202;28;20196;-88
2021/03/07 10:47:59;;;;;;;5.75;2.20;;;;;;;;;;5082776;28;20028;-86
2021/03/07 10:50:25;;;;;;;5.15;2.10;;;;;;;;;;5098031;28;20016;-87
2021/03/07 10:52:52;;;;;;;5.18;3.42;;;;;;;;;;5084155;28;20040;-90
2021/03/07 10:55:18;;;;;;;5.90;2.65;;;;;;;;;;5086608;28;20069;-88
2021/03/07 10:57:44;;;;;;;4.78;3.55;;;;;;;;;;5083398;28;20039;-86
2021/03/07 11:00:11;;;;;;;4.22;3.40;;;;;;;;;;5084281;28;20030;-88
2021/03/07 11:02:37;;;;;;;3.58;2.60;;;;;;;;;;5104732;28;20031;-87
2021/03/07 11:05:04;;;;;;;7.72;2.90;;;;;;;;;;5084397;28;20024;-87
2021/03/07 11:07:30;;;;;;;5.82;4.03;;;;;;;;;;5087423;28;20092;-90
2021/03/07 11:09:56;;;;;;;8.13;3.58;;;;;;;;;;5087140;28;20032;-89
2021/03/07 11:12:22;;;;;;;5.15;3.38;;;;;;;;;;5080466;28;20020;-87
2021/03/07 11:14:48;;;;;;;5.78;3.35;;;;;;;;;;5076566;28;20037;-86
2021/03/07 11:17:14;;;;;;;4.78;3.33;;;;;;;;;;5078242;28;20113;-88
2021/03/07 11:19:40;;;;;;;3.72;2.72;;;;;;;;;;5094695;28;20044;-88
2021/03/07 11:22:07;;;;;;;3.97;2.97;;;;;;;;;;5080098;28;20016;-87
2021/03/07 11:24:33;;;;;;;4.72;3.40;;;;;;;;;;5077408;28;20032;-90
2021/03/07 11:26:59;;;;;;;5.13;3.08;;;;;;;;;;5077594;28;20020;-88
2021/03/07 11:29:25;;;;;;;9.73;2.60;;;;;;;;;;5078421;28;20028;-88
2021/03/07 11:31:51;;;;;;;3.25;2.40;;;;;;;;;;5078518;28;20038;-87
2021/03/07 11:34:17;;;;;;;2.78;2.15;;;;;;;;;;5095693;28;20124;-87
2021/03/07 11:36:43;;;;;;;2.65;2.45;;;;;;;;;;5078495;28;20043;-89
2021/03/07 11:39:09;;;;;;;3.05;2.28;;;;;;;;;;5095799;28;20024;-86
2021/03/07 11:41:35;;;;;;;4.88;2.05;;;;;;;;;;5096607;28;20012;-86
2021/03/07 11:44:02;;;;;;;3.92;1.58;;;;;;;;;;5095280;28;20028;-87
2021/03/07 11:46:28;;;;;;;4.03;2.00;;;;;;;;;;5094275;28;20050;-89
2021/03/07 11:48:54;;;;;;;2.88;1.80;;;;;;;;;;5074548;28;20020;-89
2021/03/07 11:51:20;;;;;;;2.00;1.45;;;;;;;;;;5075655;28;20016;-87
2021/03/07 11:53:46;;;;;;;2.47;1.60;;;;;;;;;;5078110;28;20039;-90
2021/03/07 11:56:12;;;;;;;2.03;1.83;;;;;;;;;;5076833;28;20197;-88
2021/03/07 11:58:38;;;;;;;2.13;1.70;;;;;;;;;;5079741;28;20020;-86
2021/03/07 12:01:05;;;;;;;2.30;1.65;;;;;;;;;;5077360;28;20031;-86
2021/03/07 12:03:31;;;;;;;1.42;1.23;;;;;;;;;;5096375;28;20141;-85
2021/03/07 12:05:57;;;;;;;1.52;1.27;;;;;;;;;;5078589;28;20059;-88
2021/03/07 12:08:23;;;;;;;2.55;1.63;;;;;;;;;;5093676;28;20084;-87
2021/03/07 12:10:49;;;;;;;2.65;1.73;;;;;;;;;;5093892;28;20082;-90
2021/03/07 12:13:15;;;;;;;2.40;2.00;;;;;;;;;;5075976;28;20105;-88
2021/03/07 12:15:41;;;;;;;3.42;1.75;;;;;;;;;;5075962;28;20044;-87
2021/03/07 12:18:08;;;;;;;2.33;1.80;;;;;;;;;;5092041;28;20028;-89
2021/03/07 12:20:34;;;;;;;1.63;1.45;;;;;;;;;;5094853;28;20024;-86
2021/03/07 12:23:00;;;;;;;1.70;1.60;;;;;;;;;;5077104;28;20075;-91
2021/03/07 12:25:27;;;;;;;2.28;1.75;;;;;;;;;;5098151;28;20284;-87
2021/03/07 12:27:53;;;;;;;2.92;1.40;;;;;;;;;;5077818;28;20028;-88
2021/03/07 12:30:19;;;;;;;2.78;1.90;;;;;;;;;;5095855;28;20031;-88
2021/03/07 12:32:45;;;;;;;2.28;1.70;;;;;;;;;;5078531;28;20028;-87
2021/03/07 12:35:11;;;;;;;2.42;1.70;;;;;;;;;;5095570;28;20081;-90
2021/03/07 12:37:37;;;;;;;2.60;1.83;;;;;;;;;;5078919;28;20032;-88
2021/03/07 12:40:05;;;;;;;4.15;1.77;;;;;;;;;;5076898;28;20031;-88
2021/03/07 12:42:31;;;;;;;6.15;2.00;;;;;;;;;;5093743;28;20038;-85
2021/03/07 12:44:58;;;;;;;2.53;1.50;;;;;;;;;;5092488;28;20094;-89
2021/03/07 12:47:24;;;;;;;1.52;1.33;;;;;;;;;;5093642;28;20015;-88
2021/03/07 12:49:50;;;;;;;3.65;1.48;;;;;;;;;;5076951;28;20426;-88
2021/03/07 12:52:16;;;;;;;2.42;1.75;;;;;;;;;;5079163;28;20051;-85
2021/03/07 12:54:43;;;;;;;1.90;1.35;;;;;;;;;;5078408;28;20397;-89
2021/03/07 12:57:09;;;;;;;3.35;1.40;;;;;;;;;;5081059;28;20034;-85
2021/03/07 12:59:35;;;;;;;3.42;1.50;;;;;;;;;;5096184;28;20024;-87
2021/03/07 13:02:01;;;;;;;3.97;1.60;;;;;;;;;;5096042;28;20063;-85
2021/03/07 13:04:27;;;;;;;1.95;1.63;;;;;;;;;;5078874;28;20089;-86
2021/03/07 13:06:53;;;;;;;2.42;1.73;;;;;;;;;;5097475;28;20072;-88
2021/03/07 13:09:20;;;;;;;3.80;1.98;;;;;;;;;;5096994;28;20028;-87
2021/03/07 13:11:46;;;;;;;2.38;1.80;;;;;;;;;;5096030;28;20031;-87
2021/03/07 13:14:13;;;;;;;1.42;1.10;;;;;;;;;;5079231;28;20040;-87
2021/03/07 13:16:39;;;;;;;2.78;1.38;;;;;;;;;;5078678;28;20032;-87
2021/03/07 13:19:05;;;;;;;3.15;1.63;;;;;;;;;;5094893;28;20061;-90
2021/03/07 13:21:31;;;;;;;1.48;1.08;;;;;;;;;;5077129;28;20032;-90
2021/03/07 13:23:58;;;;;;;1.60;1.13;;;;;;;;;;5076748;28;20025;-86
2021/03/07 13:26:25;;;;;;;3.30;1.83;;;;;;;;;;5076941;28;20034;-87
2021/03/07 13:28:51;;;;;;;1.98;1.45;;;;;;;;;;5078483;28;20118;-89
2021/03/07 13:31:17;;;;;;;2.08;1.67;;;;;;;;;;5078569;28;20027;-87
2021/03/07 13:33:43;;;;;;;1.10;1.00;;;;;;;;;;5077713;28;20028;-88
2021/03/07 13:36:10;;;;;;;0.98;0.98;;;;;;;;;;5077576;28;20024;-88
2021/03/07 13:38:36;;;;;;;2.22;1.10;;;;;;;;;;5076504;28;20028;-87
2021/03/07 13:41:02;;;;;;;1.80;0.77;;;;;;;;;;5080333;28;20069;-86
2021/03/07 13:43:28;;;;;;;0.93;0.90;;;;;;;;;;5079770;28;20036;-89
2021/03/07 13:45:55;;;;;;;1.10;1.00;;;;;;;;;;5097296;28;20035;-88
2021/03/07 13:48:21;;;;;;;2.75;1.30;;;;;;;;;;5077031;28;20058;-86
2021/03/07 13:50:47;;;;;;;2.58;1.30;;;;;;;;;;5097913;28;20069;-87
2021/03/07 13:53:14;;;;;;;3.10;1.40;;;;;;;;;;5080449;28;20080;-87
2021/03/07 13:55:40;;;;;;;1.40;1.00;;;;;;;;;;5078045;28;20024;-87
2021/03/07 13:58:06;;;;;;;4.75;1.60;;;;;;;;;;5094809;28;20023;-88
2021/03/07 14:00:32;;;;;;;4.28;1.42;;;;;;;;;;5092173;28;20086;-87
2021/03/07 14:02:58;;;;;;;6.40;1.80;;;;;;;;;;5076680;28;20035;-88
2021/03/07 14:05:25;;;;;;;2.22;1.00;;;;;;;;;;5094947;28;20036;-87
2021/03/07 14:07:52;;;;;;;1.23;1.13;;;;;;;;;;5074662;28;20101;-88
2021/03/07 14:10:18;;;;;;;3.90;1.35;;;;;;;;;;5072134;28;20024;-88
2021/03/07 14:12:45;;;;;;;2.25;1.33;;;;;;;;;;5077875;28;20077;-88
2021/03/07 14:15:11;;;;;;;1.45;1.20;;;;;;;;;;5077816;28;20038;-87
2021/03/07 14:17:44;;;;;;;2.30;1.27;;;;;;;;;;5078211;28;20066;-88
2021/03/07 14:20:12;;;;;;;3.63;1.40;;;;;;;;;;5077581;28;20401;-90
2021/03/07 14:22:38;;;;;;;3.13;1.63;;;;;;;;;;5095133;28;20024;-86
2021/03/07 14:25:05;;;;;;;2.15;0.95;;;;;;;;;;5078977;28;20055;-86
2021/03/07 14:27:31;;;;;;;1.13;1.00;;;;;;;;;;5093248;28;20039;-90
2021/03/07 14:29:58;;;;;;;4.72;1.25;;;;;;;;;;5076758;28;20024;-89
2021/03/07 14:32:26;;;;;;;2.15;1.02;;;;;;;;;;5096411;28;20028;-85
2021/03/07 14:34:52;;;;;;;1.58;1.20;;;;;;;;;;5077466;28;20032;-86
2021/03/07 14:37:18;;;;;;;2.75;1.20;;;;;;;;;;5075440;28;20452;-86
2021/03/07 14:39:44;;;;;;;2.22;1.10;;;;;;;;;;5094503;28;20130;-88